sensor_id;sensor_type;location;lat;lon;timestamp;P1;durP1;ratioP1;P2;durP2;ratioP2
20984;SDS011;10651;47.552;7.606;2022-09-28T05:19:39;5.10;;;2.90;;
20984;SDS011;10651;47.552;7.606;2022-09-28T05:22:04;4.03;;;2.75;;
20984;SDS011;10651;47.552;7.606;2022-09-28T05:24:35;7.78;;;2.50;;
20984;SDS011;10651;47.552;7.606;2022-09-28T05:27:00;3.60;;;2.30;;
20984;SDS011;10651;47.552;7.606;2022-09-28T05:29:26;5.07;;;3.15;;
20984;SDS011;10651;47.552;7.606;2022-09-28T05:31:52;4.93;;;2.60;;
20984;SDS011;10651;47.552;7.606;2022-09-28T05:34:17;4.60;;;2.67;;
20984;SDS011;10651;47.552;7.606;2022-09-28T05:36:43;8.32;;;3.58;;
20984;SDS011;10651;47.552;7.606;2022-09-28T05:39:09;7.55;;;3.53;;
20984;SDS011;10651;47.552;7.606;2022-09-28T05:41:35;20.38;;;8.82;;
20984;SDS011;10651;47.552;7.606;2022-09-28T05:44:00;7.47;;;4.18;;
20984;SDS011;10651;47.552;7.606;2022-09-28T05:46:26;5.87;;;3.50;;
20984;SDS011;10651;47.552;7.606;2022-09-28T05:48:52;7.47;;;3.25;;
20984;SDS011;10651;47.552;7.606;2022-09-28T05:51:18;6.47;;;3.00;;
20984;SDS011;10651;47.552;7.606;2022-09-28T05:53:44;4.63;;;2.85;;
20984;SDS011;10651;47.552;7.606;2022-09-28T05:56:10;5.70;;;3.20;;
20984;SDS011;10651;47.552;7.606;2022-09-28T05:58:36;5.20;;;2.50;;
20984;SDS011;10651;47.552;7.606;2022-09-28T06:01:01;3.85;;;2.40;;
20984;SDS011;10651;47.552;7.606;2022-09-28T06:03:27;4.18;;;2.67;;
20984;SDS011;10651;47.552;7.606;2022-09-28T06:05:52;4.53;;;2.47;;
20984;SDS011;10651;47.552;7.606;2022-09-28T06:08:18;4.78;;;2.63;;
20984;SDS011;10651;47.552;7.606;2022-09-28T06:10:44;3.72;;;2.80;;
20984;SDS011;10651;47.552;7.606;2022-09-28T06:13:10;5.35;;;3.05;;
20984;SDS011;10651;47.552;7.606;2022-09-28T06:15:36;8.57;;;3.25;;
20984;SDS011;10651;47.552;7.606;2022-09-28T06:20:37;5.53;;;3.30;;
20984;SDS011;10651;47.552;7.606;2022-09-28T06:23:10;3.42;;;2.67;;
20984;SDS011;10651;47.552;7.606;2022-09-28T06:25:36;5.22;;;2.72;;
20984;SDS011;10651;47.552;7.606;2022-09-28T06:28:03;7.28;;;3.58;;
20984;SDS011;10651;47.552;7.606;2022-09-28T06:30:37;4.53;;;3.00;;
20984;SDS011;10651;47.552;7.606;2022-09-28T06:33:04;2.83;;;2.50;;
20984;SDS011;10651;47.552;7.606;2022-09-28T06:35:31;3.58;;;2.97;;
20984;SDS011;10651;47.552;7.606;2022-09-28T06:38:00;5.25;;;2.92;;
20984;SDS011;10651;47.552;7.606;2022-09-28T06:40:26;8.00;;;3.55;;
20984;SDS011;10651;47.552;7.606;2022-09-28T06:42:59;4.85;;;3.22;;
20984;SDS011;10651;47.552;7.606;2022-09-28T06:45:26;4.68;;;3.17;;
20984;SDS011;10651;47.552;7.606;2022-09-28T06:47:53;7.32;;;3.58;;
20984;SDS011;10651;47.552;7.606;2022-09-28T06:50:20;7.20;;;3.10;;
20984;SDS011;10651;47.552;7.606;2022-09-28T06:52:50;4.22;;;2.45;;
20984;SDS011;10651;47.552;7.606;2022-09-28T06:55:17;4.93;;;2.65;;
20984;SDS011;10651;47.552;7.606;2022-09-28T06:57:43;4.57;;;2.40;;
20984;SDS011;10651;47.552;7.606;2022-09-28T07:00:09;3.50;;;2.42;;
20984;SDS011;10651;47.552;7.606;2022-09-28T07:02:35;5.72;;;2.90;;
20984;SDS011;10651;47.552;7.606;2022-09-28T07:05:01;4.78;;;2.22;;
20984;SDS011;10651;47.552;7.606;2022-09-28T07:07:27;4.05;;;1.83;;
20984;SDS011;10651;47.552;7.606;2022-09-28T07:09:53;2.92;;;1.63;;
20984;SDS011;10651;47.552;7.606;2022-09-28T07:12:19;3.20;;;1.85;;
20984;SDS011;10651;47.552;7.606;2022-09-28T07:14:47;3.72;;;1.60;;
20984;SDS011;10651;47.552;7.606;2022-09-28T07:17:14;4.05;;;1.67;;
20984;SDS011;10651;47.552;7.606;2022-09-28T07:19:39;5.38;;;1.83;;
20984;SDS011;10651;47.552;7.606;2022-09-28T07:22:05;4.10;;;1.40;;
20984;SDS011;10651;47.552;7.606;2022-09-28T07:24:31;4.20;;;1.60;;
20984;SDS011;10651;47.552;7.606;2022-09-28T07:26:56;5.50;;;1.75;;
20984;SDS011;10651;47.552;7.606;2022-09-28T07:29:22;3.05;;;1.65;;
20984;SDS011;10651;47.552;7.606;2022-09-28T07:31:47;9.60;;;1.90;;
20984;SDS011;10651;47.552;7.606;2022-09-28T07:34:13;3.97;;;1.90;;
20984;SDS011;10651;47.552;7.606;2022-09-28T07:36:39;3.83;;;1.80;;
20984;SDS011;10651;47.552;7.606;2022-09-28T07:39:04;3.72;;;1.90;;
20984;SDS011;10651;47.552;7.606;2022-09-28T07:41:30;3.65;;;1.63;;
20984;SDS011;10651;47.552;7.606;2022-09-28T07:44:02;4.47;;;1.80;;
20984;SDS011;10651;47.552;7.606;2022-09-28T07:46:31;6.28;;;1.90;;
20984;SDS011;10651;47.552;7.606;2022-09-28T07:49:00;3.72;;;1.60;;
20984;SDS011;10651;47.552;7.606;2022-09-28T07:51:29;3.45;;;1.70;;
20984;SDS011;10651;47.552;7.606;2022-09-28T07:53:55;7.05;;;1.90;;
20984;SDS011;10651;47.552;7.606;2022-09-28T07:56:21;5.28;;;1.88;;
20984;SDS011;10651;47.552;7.606;2022-09-28T07:58:47;6.10;;;1.90;;
20984;SDS011;10651;47.552;7.606;2022-09-28T08:01:13;3.58;;;2.05;;
20984;SDS011;10651;47.552;7.606;2022-09-28T08:03:40;3.92;;;1.88;;
20984;SDS011;10651;47.552;7.606;2022-09-28T08:06:11;4.68;;;1.60;;
20984;SDS011;10651;47.552;7.606;2022-09-28T08:08:39;4.50;;;2.05;;
20984;SDS011;10651;47.552;7.606;2022-09-28T08:11:08;7.07;;;2.30;;
20984;SDS011;10651;47.552;7.606;2022-09-28T08:13:37;2.78;;;1.75;;
20984;SDS011;10651;47.552;7.606;2022-09-28T08:16:03;4.57;;;1.80;;
20984;SDS011;10651;47.552;7.606;2022-09-28T08:18:31;7.13;;;1.85;;
20984;SDS011;10651;47.552;7.606;2022-09-28T08:20:57;4.78;;;2.15;;
20984;SDS011;10651;47.552;7.606;2022-09-28T08:23:41;7.25;;;2.33;;
20984;SDS011;10651;47.552;7.606;2022-09-28T08:26:06;7.60;;;1.70;;
20984;SDS011;10651;47.552;7.606;2022-09-28T08:28:32;5.10;;;1.95;;
20984;SDS011;10651;47.552;7.606;2022-09-28T08:31:01;6.40;;;1.90;;
20984;SDS011;10651;47.552;7.606;2022-09-28T08:33:27;5.93;;;2.20;;
20984;SDS011;10651;47.552;7.606;2022-09-28T08:35:54;5.07;;;1.80;;
20984;SDS011;10651;47.552;7.606;2022-09-28T08:38:26;6.50;;;2.50;;
20984;SDS011;10651;47.552;7.606;2022-09-28T08:43:40;9.90;;;2.70;;
20984;SDS011;10651;47.552;7.606;2022-09-28T08:46:15;5.32;;;2.00;;
20984;SDS011;10651;47.552;7.606;2022-09-28T08:48:47;5.93;;;2.35;;
20984;SDS011;10651;47.552;7.606;2022-09-28T08:51:22;10.98;;;2.35;;
20984;SDS011;10651;47.552;7.606;2022-09-28T08:53:59;6.85;;;2.33;;
20984;SDS011;10651;47.552;7.606;2022-09-28T08:56:31;6.60;;;2.30;;
20984;SDS011;10651;47.552;7.606;2022-09-28T08:59:00;8.68;;;2.42;;
20984;SDS011;10651;47.552;7.606;2022-09-28T09:01:32;6.15;;;2.00;;
20984;SDS011;10651;47.552;7.606;2022-09-28T09:04:02;9.38;;;2.65;;
20984;SDS011;10651;47.552;7.606;2022-09-28T09:09:25;13.65;;;2.70;;
20984;SDS011;10651;47.552;7.606;2022-09-28T09:14:42;7.53;;;1.98;;
20984;SDS011;10651;47.552;7.606;2022-09-28T09:17:35;11.57;;;2.50;;
20984;SDS011;10651;47.552;7.606;2022-09-28T09:23:16;11.98;;;2.50;;
20984;SDS011;10651;47.552;7.606;2022-09-28T09:25:51;8.02;;;2.42;;
20984;SDS011;10651;47.552;7.606;2022-09-28T09:33:58;6.00;;;2.58;;
20984;SDS011;10651;47.552;7.606;2022-09-28T09:39:06;5.57;;;2.10;;
20984;SDS011;10651;47.552;7.606;2022-09-28T09:42:07;5.57;;;2.15;;
20984;SDS011;10651;47.552;7.606;2022-09-28T09:47:22;7.25;;;2.30;;
20984;SDS011;10651;47.552;7.606;2022-09-28T09:50:09;4.93;;;2.30;;
20984;SDS011;10651;47.552;7.606;2022-09-28T09:52:55;6.55;;;2.42;;
20984;SDS011;10651;47.552;7.606;2022-09-28T09:55:43;6.28;;;2.45;;
20984;SDS011;10651;47.552;7.606;2022-09-28T09:58:16;6.70;;;2.67;;
20984;SDS011;10651;47.552;7.606;2022-09-28T10:00:47;7.35;;;2.55;;
20984;SDS011;10651;47.552;7.606;2022-09-28T10:03:20;6.20;;;2.10;;
20984;SDS011;10651;47.552;7.606;2022-09-28T10:05:56;5.35;;;1.88;;
20984;SDS011;10651;47.552;7.606;2022-09-28T10:08:25;7.88;;;2.33;;
20984;SDS011;10651;47.552;7.606;2022-09-28T10:10:55;3.22;;;2.20;;
20984;SDS011;10651;47.552;7.606;2022-09-28T10:13:32;7.40;;;2.40;;
20984;SDS011;10651;47.552;7.606;2022-09-28T10:15:58;9.32;;;2.35;;
20984;SDS011;10651;47.552;7.606;2022-09-28T10:18:24;8.00;;;2.13;;
20984;SDS011;10651;47.552;7.606;2022-09-28T10:20:51;7.57;;;2.45;;
20984;SDS011;10651;47.552;7.606;2022-09-28T10:23:23;7.95;;;2.22;;
20984;SDS011;10651;47.552;7.606;2022-09-28T10:34:05;4.43;;;1.60;;
20984;SDS011;10651;47.552;7.606;2022-09-28T10:36:33;4.25;;;1.77;;
20984;SDS011;10651;47.552;7.606;2022-09-28T10:39:22;7.75;;;2.22;;
20984;SDS011;10651;47.552;7.606;2022-09-28T10:41:55;6.30;;;2.08;;
20984;SDS011;10651;47.552;7.606;2022-09-28T10:44:23;4.18;;;1.80;;
20984;SDS011;10651;47.552;7.606;2022-09-28T10:47:01;7.40;;;2.13;;
20984;SDS011;10651;47.552;7.606;2022-09-28T10:49:39;6.65;;;1.80;;
20984;SDS011;10651;47.552;7.606;2022-09-28T10:52:28;2.25;;;1.70;;
20984;SDS011;10651;47.552;7.606;2022-09-28T10:54:59;7.63;;;2.28;;
20984;SDS011;10651;47.552;7.606;2022-09-28T10:57:27;5.78;;;3.13;;
20984;SDS011;10651;47.552;7.606;2022-09-28T10:59:56;7.43;;;3.90;;
20984;SDS011;10651;47.552;7.606;2022-09-28T11:02:28;6.45;;;2.95;;
20984;SDS011;10651;47.552;7.606;2022-09-28T11:05:00;7.00;;;2.40;;
20984;SDS011;10651;47.552;7.606;2022-09-28T11:07:29;6.05;;;2.15;;
20984;SDS011;10651;47.552;7.606;2022-09-28T11:09:56;4.72;;;2.05;;
20984;SDS011;10651;47.552;7.606;2022-09-28T11:12:24;7.40;;;2.42;;
20984;SDS011;10651;47.552;7.606;2022-09-28T11:15:02;5.20;;;2.53;;
20984;SDS011;10651;47.552;7.606;2022-09-28T11:17:32;5.82;;;2.40;;
20984;SDS011;10651;47.552;7.606;2022-09-28T11:20:27;5.90;;;2.22;;
20984;SDS011;10651;47.552;7.606;2022-09-28T11:23:38;7.95;;;2.63;;
20984;SDS011;10651;47.552;7.606;2022-09-28T11:25:54;8.63;;;2.33;;
20984;SDS011;10651;47.552;7.606;2022-09-28T11:28:30;8.00;;;2.38;;
20984;SDS011;10651;47.552;7.606;2022-09-28T11:30:59;4.80;;;2.00;;
20984;SDS011;10651;47.552;7.606;2022-09-28T11:33:37;5.78;;;2.17;;
20984;SDS011;10651;47.552;7.606;2022-09-28T11:51:50;5.90;;;2.08;;
20984;SDS011;10651;47.552;7.606;2022-09-28T11:54:25;5.32;;;2.40;;
20984;SDS011;10651;47.552;7.606;2022-09-28T11:57:13;6.15;;;2.08;;
20984;SDS011;10651;47.552;7.606;2022-09-28T12:02:15;4.90;;;2.10;;
20984;SDS011;10651;47.552;7.606;2022-09-28T12:04:54;6.60;;;2.22;;
20984;SDS011;10651;47.552;7.606;2022-09-28T12:07:28;4.97;;;2.10;;
20984;SDS011;10651;47.552;7.606;2022-09-28T12:10:07;9.88;;;2.65;;
20984;SDS011;10651;47.552;7.606;2022-09-28T12:17:45;6.55;;;2.10;;
20984;SDS011;10651;47.552;7.606;2022-09-28T12:20:20;10.60;;;2.30;;
20984;SDS011;10651;47.552;7.606;2022-09-28T12:23:11;4.90;;;2.22;;
20984;SDS011;10651;47.552;7.606;2022-09-28T12:25:57;7.10;;;2.30;;
20984;SDS011;10651;47.552;7.606;2022-09-28T12:28:29;10.15;;;2.30;;
20984;SDS011;10651;47.552;7.606;2022-09-28T12:30:57;6.88;;;2.83;;
20984;SDS011;10651;47.552;7.606;2022-09-28T12:33:30;4.82;;;2.83;;
20984;SDS011;10651;47.552;7.606;2022-09-28T12:36:08;5.10;;;2.30;;
20984;SDS011;10651;47.552;7.606;2022-09-28T12:51:24;6.18;;;2.85;;
20984;SDS011;10651;47.552;7.606;2022-09-28T12:56:03;7.53;;;2.80;;
20984;SDS011;10651;47.552;7.606;2022-09-28T13:06:55;5.68;;;2.97;;
20984;SDS011;10651;47.552;7.606;2022-09-28T13:09:27;6.60;;;2.65;;
20984;SDS011;10651;47.552;7.606;2022-09-28T13:12:35;4.15;;;2.55;;
20984;SDS011;10651;47.552;7.606;2022-09-28T13:29:17;6.75;;;2.70;;
20984;SDS011;10651;47.552;7.606;2022-09-28T13:31:52;5.07;;;2.40;;
20984;SDS011;10651;47.552;7.606;2022-09-28T13:34:22;3.33;;;1.95;;
20984;SDS011;10651;47.552;7.606;2022-09-28T13:42:10;4.13;;;1.95;;
20984;SDS011;10651;47.552;7.606;2022-09-28T13:44:53;5.03;;;2.40;;
20984;SDS011;10651;47.552;7.606;2022-09-28T13:56:02;9.88;;;2.90;;
20984;SDS011;10651;47.552;7.606;2022-09-28T13:58:46;5.10;;;2.28;;
20984;SDS011;10651;47.552;7.606;2022-09-28T14:01:23;5.13;;;2.40;;
20984;SDS011;10651;47.552;7.606;2022-09-28T14:07:14;4.78;;;2.13;;
20984;SDS011;10651;47.552;7.606;2022-09-28T14:09:45;4.00;;;2.10;;
20984;SDS011;10651;47.552;7.606;2022-09-28T14:12:58;6.43;;;3.22;;
20984;SDS011;10651;47.552;7.606;2022-09-28T14:14:58;8.30;;;3.75;;
20984;SDS011;10651;47.552;7.606;2022-09-28T14:19:51;6.38;;;1.92;;
20984;SDS011;10651;47.552;7.606;2022-09-28T14:25:22;5.53;;;2.38;;
20984;SDS011;10651;47.552;7.606;2022-09-28T14:28:00;3.17;;;2.10;;
20984;SDS011;10651;47.552;7.606;2022-09-28T14:30:48;3.78;;;2.00;;
20984;SDS011;10651;47.552;7.606;2022-09-28T14:35:44;5.95;;;2.20;;
20984;SDS011;10651;47.552;7.606;2022-09-28T14:38:30;4.18;;;2.05;;
20984;SDS011;10651;47.552;7.606;2022-09-28T14:41:36;3.90;;;2.08;;
20984;SDS011;10651;47.552;7.606;2022-09-28T14:46:39;3.45;;;2.20;;
20984;SDS011;10651;47.552;7.606;2022-09-28T14:54:13;3.58;;;2.30;;
20984;SDS011;10651;47.552;7.606;2022-09-28T14:59:22;3.53;;;2.22;;
20984;SDS011;10651;47.552;7.606;2022-09-28T15:02:10;3.85;;;2.53;;
20984;SDS011;10651;47.552;7.606;2022-09-28T15:04:42;4.55;;;2.20;;
20984;SDS011;10651;47.552;7.606;2022-09-28T15:09:48;3.75;;;2.33;;
20984;SDS011;10651;47.552;7.606;2022-09-28T15:12:20;4.43;;;2.35;;
20984;SDS011;10651;47.552;7.606;2022-09-28T15:14:52;4.97;;;2.50;;
20984;SDS011;10651;47.552;7.606;2022-09-28T15:17:26;5.57;;;2.30;;
20984;SDS011;10651;47.552;7.606;2022-09-28T15:20:02;3.65;;;2.65;;
20984;SDS011;10651;47.552;7.606;2022-09-28T15:22:34;3.38;;;2.13;;
20984;SDS011;10651;47.552;7.606;2022-09-28T15:25:02;3.60;;;2.30;;
20984;SDS011;10651;47.552;7.606;2022-09-28T15:27:37;4.13;;;2.20;;
20984;SDS011;10651;47.552;7.606;2022-09-28T15:32:49;2.47;;;2.15;;
20984;SDS011;10651;47.552;7.606;2022-09-28T15:35:18;3.08;;;1.92;;
20984;SDS011;10651;47.552;7.606;2022-09-28T15:37:47;2.15;;;1.90;;
20984;SDS011;10651;47.552;7.606;2022-09-28T15:40:16;3.92;;;2.42;;
20984;SDS011;10651;47.552;7.606;2022-09-28T15:42:44;4.45;;;2.40;;
20984;SDS011;10651;47.552;7.606;2022-09-28T15:45:18;3.25;;;2.10;;
20984;SDS011;10651;47.552;7.606;2022-09-28T15:48:34;2.35;;;2.00;;
20984;SDS011;10651;47.552;7.606;2022-09-28T15:51:07;4.50;;;2.10;;
20984;SDS011;10651;47.552;7.606;2022-09-28T15:53:50;1.77;;;1.67;;
20984;SDS011;10651;47.552;7.606;2022-09-28T15:56:22;4.18;;;2.03;;
20984;SDS011;10651;47.552;7.606;2022-09-28T16:01:50;3.65;;;2.10;;
20984;SDS011;10651;47.552;7.606;2022-09-28T16:04:34;3.78;;;2.20;;
20984;SDS011;10651;47.552;7.606;2022-09-28T16:07:18;2.22;;;2.00;;
20984;SDS011;10651;47.552;7.606;2022-09-28T16:10:00;1.95;;;1.83;;
20984;SDS011;10651;47.552;7.606;2022-09-28T16:15:02;3.28;;;1.98;;
20984;SDS011;10651;47.552;7.606;2022-09-28T16:17:31;3.15;;;2.00;;
20984;SDS011;10651;47.552;7.606;2022-09-28T16:22:54;5.65;;;2.05;;
20984;SDS011;10651;47.552;7.606;2022-09-28T16:25:24;2.47;;;1.95;;
20984;SDS011;10651;47.552;7.606;2022-09-28T16:27:51;3.25;;;2.80;;
20984;SDS011;10651;47.552;7.606;2022-09-28T16:33:00;4.60;;;1.80;;
20984;SDS011;10651;47.552;7.606;2022-09-28T16:35:48;5.25;;;2.40;;
20984;SDS011;10651;47.552;7.606;2022-09-28T16:38:15;2.40;;;2.20;;
20984;SDS011;10651;47.552;7.606;2022-09-28T16:40:42;2.72;;;2.10;;
20984;SDS011;10651;47.552;7.606;2022-09-28T16:46:07;4.55;;;2.53;;
20984;SDS011;10651;47.552;7.606;2022-09-28T16:48:44;5.50;;;2.97;;
20984;SDS011;10651;47.552;7.606;2022-09-28T16:51:19;3.60;;;2.80;;
20984;SDS011;10651;47.552;7.606;2022-09-28T16:53:46;3.22;;;2.90;;
20984;SDS011;10651;47.552;7.606;2022-09-28T16:56:32;2.78;;;2.58;;
20984;SDS011;10651;47.552;7.606;2022-09-28T16:58:59;4.57;;;2.35;;
20984;SDS011;10651;47.552;7.606;2022-09-28T17:01:26;2.45;;;2.25;;
20984;SDS011;10651;47.552;7.606;2022-09-28T17:03:53;6.93;;;2.50;;
20984;SDS011;10651;47.552;7.606;2022-09-28T17:06:19;4.28;;;2.17;;
20984;SDS011;10651;47.552;7.606;2022-09-28T17:08:51;2.92;;;2.60;;
20984;SDS011;10651;47.552;7.606;2022-09-28T17:11:18;5.45;;;2.42;;
20984;SDS011;10651;47.552;7.606;2022-09-28T17:13:45;3.25;;;2.83;;
20984;SDS011;10651;47.552;7.606;2022-09-28T17:16:15;4.45;;;2.88;;
20984;SDS011;10651;47.552;7.606;2022-09-28T17:18:46;5.28;;;2.97;;
20984;SDS011;10651;47.552;7.606;2022-09-28T17:21:14;4.03;;;3.30;;
20984;SDS011;10651;47.552;7.606;2022-09-28T17:23:42;5.15;;;3.60;;
20984;SDS011;10651;47.552;7.606;2022-09-28T17:26:17;6.75;;;4.03;;
20984;SDS011;10651;47.552;7.606;2022-09-28T17:28:47;6.22;;;4.40;;
20984;SDS011;10651;47.552;7.606;2022-09-28T17:31:13;7.35;;;4.43;;
20984;SDS011;10651;47.552;7.606;2022-09-28T17:33:40;5.05;;;3.50;;
20984;SDS011;10651;47.552;7.606;2022-09-28T17:36:08;7.32;;;3.75;;
20984;SDS011;10651;47.552;7.606;2022-09-28T17:38:37;8.45;;;3.60;;
20984;SDS011;10651;47.552;7.606;2022-09-28T17:41:02;3.40;;;3.10;;
20984;SDS011;10651;47.552;7.606;2022-09-28T17:43:28;3.65;;;2.63;;
20984;SDS011;10651;47.552;7.606;2022-09-28T17:45:54;6.25;;;2.67;;
20984;SDS011;10651;47.552;7.606;2022-09-28T17:48:19;5.25;;;2.88;;
20984;SDS011;10651;47.552;7.606;2022-09-28T17:50:47;3.80;;;2.58;;
20984;SDS011;10651;47.552;7.606;2022-09-28T17:53:14;8.60;;;2.60;;
20984;SDS011;10651;47.552;7.606;2022-09-28T17:55:39;6.22;;;2.85;;
20984;SDS011;10651;47.552;7.606;2022-09-28T17:58:25;5.07;;;3.10;;
20984;SDS011;10651;47.552;7.606;2022-09-28T18:00:50;5.43;;;2.60;;
20984;SDS011;10651;47.552;7.606;2022-09-28T18:03:20;4.28;;;2.90;;
20984;SDS011;10651;47.552;7.606;2022-09-28T18:05:48;3.03;;;2.65;;
20984;SDS011;10651;47.552;7.606;2022-09-28T18:08:18;3.30;;;2.88;;
20984;SDS011;10651;47.552;7.606;2022-09-28T18:10:45;4.80;;;3.00;;
20984;SDS011;10651;47.552;7.606;2022-09-28T18:13:11;3.63;;;2.75;;
20984;SDS011;10651;47.552;7.606;2022-09-28T18:15:37;4.38;;;3.00;;
20984;SDS011;10651;47.552;7.606;2022-09-28T18:18:04;4.90;;;3.05;;
20984;SDS011;10651;47.552;7.606;2022-09-28T18:20:33;5.90;;;2.78;;
20984;SDS011;10651;47.552;7.606;2022-09-28T18:22:59;5.70;;;3.25;;
20984;SDS011;10651;47.552;7.606;2022-09-28T18:25:25;4.50;;;3.10;;
20984;SDS011;10651;47.552;7.606;2022-09-28T18:27:51;4.28;;;2.78;;
20984;SDS011;10651;47.552;7.606;2022-09-28T18:30:21;5.85;;;2.95;;
20984;SDS011;10651;47.552;7.606;2022-09-28T18:32:50;3.03;;;2.72;;
20984;SDS011;10651;47.552;7.606;2022-09-28T18:35:16;5.40;;;2.93;;
20984;SDS011;10651;47.552;7.606;2022-09-28T18:37:42;4.82;;;2.97;;
20984;SDS011;10651;47.552;7.606;2022-09-28T18:40:08;3.25;;;2.75;;
20984;SDS011;10651;47.552;7.606;2022-09-28T18:42:37;4.55;;;2.90;;
20984;SDS011;10651;47.552;7.606;2022-09-28T18:45:04;4.30;;;3.00;;
20984;SDS011;10651;47.552;7.606;2022-09-28T18:47:31;7.28;;;2.97;;
20984;SDS011;10651;47.552;7.606;2022-09-28T18:49:58;4.85;;;2.90;;
20984;SDS011;10651;47.552;7.606;2022-09-28T18:52:24;3.95;;;2.75;;
20984;SDS011;10651;47.552;7.606;2022-09-28T18:54:51;6.50;;;3.00;;
20984;SDS011;10651;47.552;7.606;2022-09-28T18:57:17;10.13;;;3.10;;
20984;SDS011;10651;47.552;7.606;2022-09-28T18:59:43;3.38;;;3.08;;
20984;SDS011;10651;47.552;7.606;2022-09-28T19:02:09;5.78;;;2.80;;
20984;SDS011;10651;47.552;7.606;2022-09-28T19:04:38;4.10;;;2.60;;
20984;SDS011;10651;47.552;7.606;2022-09-28T19:07:05;3.70;;;2.80;;
20984;SDS011;10651;47.552;7.606;2022-09-28T19:09:31;7.88;;;2.63;;
20984;SDS011;10651;47.552;7.606;2022-09-28T19:11:57;3.40;;;2.70;;
20984;SDS011;10651;47.552;7.606;2022-09-28T19:14:23;3.85;;;2.65;;
20984;SDS011;10651;47.552;7.606;2022-09-28T19:16:49;6.43;;;3.55;;
20984;SDS011;10651;47.552;7.606;2022-09-28T19:19:16;5.53;;;3.65;;
20984;SDS011;10651;47.552;7.606;2022-09-28T19:21:43;4.63;;;3.20;;
20984;SDS011;10651;47.552;7.606;2022-09-28T19:24:13;4.68;;;3.53;;
20984;SDS011;10651;47.552;7.606;2022-09-28T19:26:40;7.65;;;4.13;;
20984;SDS011;10651;47.552;7.606;2022-09-28T19:29:06;7.00;;;3.70;;
20984;SDS011;10651;47.552;7.606;2022-09-28T19:31:33;5.82;;;4.00;;
20984;SDS011;10651;47.552;7.606;2022-09-28T19:33:59;6.25;;;3.97;;
20984;SDS011;10651;47.552;7.606;2022-09-28T19:36:25;4.40;;;3.63;;
20984;SDS011;10651;47.552;7.606;2022-09-28T19:38:52;8.60;;;4.43;;
20984;SDS011;10651;47.552;7.606;2022-09-28T19:41:24;6.70;;;4.22;;
20984;SDS011;10651;47.552;7.606;2022-09-28T19:44:16;6.80;;;4.32;;
20984;SDS011;10651;47.552;7.606;2022-09-28T19:49:24;6.70;;;4.88;;
20984;SDS011;10651;47.552;7.606;2022-09-28T19:51:52;6.60;;;4.72;;
20984;SDS011;10651;47.552;7.606;2022-09-28T19:54:23;7.53;;;5.03;;
20984;SDS011;10651;47.552;7.606;2022-09-28T19:56:53;6.85;;;4.57;;
20984;SDS011;10651;47.552;7.606;2022-09-28T19:59:20;7.88;;;4.97;;
20984;SDS011;10651;47.552;7.606;2022-09-28T20:01:46;13.25;;;6.30;;
20984;SDS011;10651;47.552;7.606;2022-09-28T20:04:13;8.60;;;5.38;;
20984;SDS011;10651;47.552;7.606;2022-09-28T20:06:38;8.00;;;5.50;;
20984;SDS011;10651;47.552;7.606;2022-09-28T20:09:05;6.57;;;5.45;;
20984;SDS011;10651;47.552;7.606;2022-09-28T20:11:31;8.50;;;5.80;;
20984;SDS011;10651;47.552;7.606;2022-09-28T20:13:58;7.97;;;5.85;;
20984;SDS011;10651;47.552;7.606;2022-09-28T20:16:25;10.90;;;6.13;;
20984;SDS011;10651;47.552;7.606;2022-09-28T20:18:52;10.35;;;6.22;;
20984;SDS011;10651;47.552;7.606;2022-09-28T20:21:22;8.27;;;5.88;;
20984;SDS011;10651;47.552;7.606;2022-09-28T20:23:49;8.05;;;5.85;;
20984;SDS011;10651;47.552;7.606;2022-09-28T20:26:16;8.55;;;6.30;;
20984;SDS011;10651;47.552;7.606;2022-09-28T20:28:42;9.18;;;6.28;;
20984;SDS011;10651;47.552;7.606;2022-09-28T20:31:14;7.18;;;6.30;;
20984;SDS011;10651;47.552;7.606;2022-09-28T20:33:44;12.50;;;6.70;;
20984;SDS011;10651;47.552;7.606;2022-09-28T20:36:12;10.70;;;6.35;;
20984;SDS011;10651;47.552;7.606;2022-09-28T20:38:39;9.73;;;6.70;;
20984;SDS011;10651;47.552;7.606;2022-09-28T20:41:09;8.25;;;6.70;;
20984;SDS011;10651;47.552;7.606;2022-09-28T20:43:36;7.75;;;6.75;;
20984;SDS011;10651;47.552;7.606;2022-09-28T20:46:03;9.30;;;6.82;;
20984;SDS011;10651;47.552;7.606;2022-09-28T20:48:30;10.48;;;6.38;;
20984;SDS011;10651;47.552;7.606;2022-09-28T20:50:57;9.98;;;6.88;;
20984;SDS011;10651;47.552;7.606;2022-09-28T20:53:23;15.38;;;7.55;;
20984;SDS011;10651;47.552;7.606;2022-09-28T20:55:55;9.35;;;7.10;;
20984;SDS011;10651;47.552;7.606;2022-09-28T20:58:25;10.82;;;6.63;;
20984;SDS011;10651;47.552;7.606;2022-09-28T21:00:51;10.98;;;7.07;;
20984;SDS011;10651;47.552;7.606;2022-09-28T21:03:25;10.43;;;7.00;;
20984;SDS011;10651;47.552;7.606;2022-09-28T21:05:50;9.45;;;6.55;;
20984;SDS011;10651;47.552;7.606;2022-09-28T21:08:16;9.05;;;7.30;;
20984;SDS011;10651;47.552;7.606;2022-09-28T21:10:42;9.97;;;7.27;;
20984;SDS011;10651;47.552;7.606;2022-09-28T21:13:08;10.30;;;7.20;;
20984;SDS011;10651;47.552;7.606;2022-09-28T21:15:35;9.23;;;7.00;;
20984;SDS011;10651;47.552;7.606;2022-09-28T21:18:00;11.02;;;6.68;;
20984;SDS011;10651;47.552;7.606;2022-09-28T21:20:26;10.77;;;5.65;;
20984;SDS011;10651;47.552;7.606;2022-09-28T21:22:51;6.60;;;5.57;;
20984;SDS011;10651;47.552;7.606;2022-09-28T21:25:17;8.70;;;5.32;;
20984;SDS011;10651;47.552;7.606;2022-09-28T21:27:43;5.88;;;4.70;;
20984;SDS011;10651;47.552;7.606;2022-09-28T21:30:10;8.05;;;5.25;;
20984;SDS011;10651;47.552;7.606;2022-09-28T21:32:36;10.57;;;5.28;;
20984;SDS011;10651;47.552;7.606;2022-09-28T21:35:01;9.88;;;5.47;;
20984;SDS011;10651;47.552;7.606;2022-09-28T21:37:27;7.78;;;5.05;;
20984;SDS011;10651;47.552;7.606;2022-09-28T21:39:52;14.32;;;5.70;;
20984;SDS011;10651;47.552;7.606;2022-09-28T21:42:18;8.90;;;5.10;;
20984;SDS011;10651;47.552;7.606;2022-09-28T21:44:44;9.13;;;5.25;;
20984;SDS011;10651;47.552;7.606;2022-09-28T21:47:09;7.25;;;5.85;;
20984;SDS011;10651;47.552;7.606;2022-09-28T21:49:35;10.98;;;5.75;;
20984;SDS011;10651;47.552;7.606;2022-09-28T21:52:00;7.65;;;5.78;;
20984;SDS011;10651;47.552;7.606;2022-09-28T21:54:26;8.38;;;6.30;;
20984;SDS011;10651;47.552;7.606;2022-09-28T21:56:52;8.70;;;6.80;;
20984;SDS011;10651;47.552;7.606;2022-09-28T21:59:18;9.07;;;6.95;;
20984;SDS011;10651;47.552;7.606;2022-09-28T22:01:44;9.98;;;7.15;;
20984;SDS011;10651;47.552;7.606;2022-09-28T22:04:10;9.60;;;6.72;;
20984;SDS011;10651;47.552;7.606;2022-09-28T22:06:35;10.20;;;7.30;;
20984;SDS011;10651;47.552;7.606;2022-09-28T22:09:01;13.05;;;7.07;;
20984;SDS011;10651;47.552;7.606;2022-09-28T22:11:27;8.80;;;6.55;;
20984;SDS011;10651;47.552;7.606;2022-09-28T22:13:54;7.97;;;6.63;;
20984;SDS011;10651;47.552;7.606;2022-09-28T22:16:22;10.57;;;6.68;;
20984;SDS011;10651;47.552;7.606;2022-09-28T22:18:49;7.72;;;5.97;;
20984;SDS011;10651;47.552;7.606;2022-09-28T22:21:19;9.50;;;6.10;;
20984;SDS011;10651;47.552;7.606;2022-09-28T22:23:46;10.25;;;5.90;;
20984;SDS011;10651;47.552;7.606;2022-09-28T22:26:16;10.75;;;6.15;;
20984;SDS011;10651;47.552;7.606;2022-09-28T22:28:46;10.80;;;6.03;;
20984;SDS011;10651;47.552;7.606;2022-09-28T22:31:13;9.82;;;5.97;;
20984;SDS011;10651;47.552;7.606;2022-09-28T22:33:41;9.95;;;6.07;;
20984;SDS011;10651;47.552;7.606;2022-09-28T22:36:06;8.60;;;5.88;;
20984;SDS011;10651;47.552;7.606;2022-09-28T22:38:32;7.72;;;5.72;;
